Ludell, Kansas
Current Conditions -  °F | °C
As of 3:55 PM on Wednesday 28 Jan 2015 (Local Time) from KCBK Reporting Station
Clear Clear  
Wind Chill: 64°   Ceiling: Unl
Heat Index: 64°   Visibility: 10mi
Dew Point: 36°   Wind: 28mph
Humidity: 34%   Direction: 310°NW
Pressure: 29.92"   Gusts: 39mph
Location:  39.86°N, 100.96°W
Report Text: KCBK 282155Z AUTO 31024G34KT 10SM CLR 18/02 A2992 RMK AO2
Loading
Personal Weather Stations






























Interactive Weather Map New forecast layout! Learn more

10-Day Weather Forecast

Advertisements
Track Severe Weather on mobile